Time;durP1;ratioP1;P1;durP2;ratioP2;P2;SDS_P1;SDS_P2;PMS_P1;PMS_P2;Temp;Humidity;BMP_temperature;BMP_pressure;BME280_temperature;BME280_humidity;BME280_pressure;Samples;Min_cycle;Max_cycle;Signal;HPM_P1;HPM_P2
2021/03/25 00:01:58;;;;;;;9.93;6.17;;;;;;;;;;4337390;33;20711;-53
2021/03/25 00:04:24;;;;;;;15.53;9.80;;;;;;;;;;4327646;33;20720;-55
2021/03/25 00:06:53;;;;;;;15.27;8.67;;;;;;;;;;4332976;33;20227;-55
2021/03/25 00:09:25;;;;;;;10.57;7.40;;;;;;;;;;4325876;33;20218;-55
2021/03/25 00:11:51;;;;;;;11.37;6.67;;;;;;;;;;4336032;33;20267;-55
2021/03/25 00:14:17;;;;;;;19.20;6.43;;;;;;;;;;4328900;33;20207;-55
2021/03/25 00:16:42;;;;;;;12.37;6.87;;;;;;;;;;4335800;33;20210;-55
2021/03/25 00:19:09;;;;;;;16.07;7.53;;;;;;;;;;4331828;33;20233;-55
2021/03/25 00:21:35;;;;;;;13.97;8.33;;;;;;;;;;4335392;33;20339;-55
2021/03/25 00:24:01;;;;;;;18.57;8.33;;;;;;;;;;4330052;33;20249;-55
2021/03/25 00:26:27;;;;;;;18.17;9.67;;;;;;;;;;4334379;33;20254;-55
2021/03/25 00:28:53;;;;;;;14.87;8.10;;;;;;;;;;4330270;33;20252;-54
2021/03/25 00:31:19;;;;;;;16.93;8.97;;;;;;;;;;4333499;33;20208;-54
2021/03/25 00:33:45;;;;;;;19.20;9.97;;;;;;;;;;4331641;33;20731;-54
2021/03/25 00:36:10;;;;;;;18.93;9.63;;;;;;;;;;4330995;33;20225;-55
2021/03/25 00:38:35;;;;;;;15.07;7.00;;;;;;;;;;4331769;33;20219;-54
2021/03/25 00:41:02;;;;;;;10.93;6.23;;;;;;;;;;4331873;33;20350;-54
2021/03/25 00:43:28;;;;;;;8.80;5.77;;;;;;;;;;4317209;33;20251;-54
2021/03/25 00:45:55;;;;;;;12.97;6.63;;;;;;;;;;4324339;33;20281;-54
2021/03/25 00:48:22;;;;;;;20.07;8.07;;;;;;;;;;4331488;33;20375;-55
2021/03/25 00:50:51;;;;;;;17.07;10.00;;;;;;;;;;4331720;33;21112;-53
2021/03/25 00:53:20;;;;;;;15.53;8.23;;;;;;;;;;4337010;33;20237;-54
2021/03/25 00:55:46;;;;;;;22.17;9.30;;;;;;;;;;4327002;33;20468;-54
2021/03/25 00:58:12;;;;;;;14.77;8.47;;;;;;;;;;4330868;33;20305;-55
2021/03/25 01:00:41;;;;;;;14.43;8.40;;;;;;;;;;4327942;33;20369;-55
2021/03/25 01:03:08;;;;;;;11.60;6.97;;;;;;;;;;4334068;33;20212;-54
2021/03/25 01:05:35;;;;;;;9.30;5.37;;;;;;;;;;4329836;33;20222;-55
2021/03/25 01:08:28;;;;;;;10.93;5.40;;;;;;;;;;4334612;33;20273;-54
2021/03/25 01:11:01;;;;;;;14.20;6.63;;;;;;;;;;4330258;33;20223;-56
2021/03/25 01:13:31;;;;;;;16.23;7.13;;;;;;;;;;4331837;33;20291;-57
2021/03/25 01:15:59;;;;;;;14.43;7.33;;;;;;;;;;4330558;33;20256;-55
2021/03/25 01:18:26;;;;;;;22.97;12.20;;;;;;;;;;4335688;33;20246;-55
2021/03/25 01:20:51;;;;;;;21.83;11.67;;;;;;;;;;4318753;33;20230;-56
2021/03/25 01:23:17;;;;;;;22.50;11.10;;;;;;;;;;4331269;33;20332;-56
2021/03/25 01:25:44;;;;;;;20.93;11.50;;;;;;;;;;4317091;33;20297;-57
2021/03/25 01:28:13;;;;;;;12.53;8.00;;;;;;;;;;4315288;33;20215;-56
2021/03/25 01:30:43;;;;;;;15.57;8.70;;;;;;;;;;4320146;33;20286;-55
2021/03/25 01:33:10;;;;;;;13.67;7.80;;;;;;;;;;4334190;33;20266;-55
2021/03/25 01:35:38;;;;;;;16.87;7.60;;;;;;;;;;4329645;33;20321;-55
2021/03/25 01:38:05;;;;;;;15.77;8.00;;;;;;;;;;4334084;33;20203;-57
2021/03/25 01:40:35;;;;;;;17.30;9.67;;;;;;;;;;4329065;33;20686;-56
2021/03/25 01:43:15;;;;;;;14.73;7.37;;;;;;;;;;4334037;33;20288;-55
2021/03/25 01:45:49;;;;;;;11.93;6.83;;;;;;;;;;4329628;33;20211;-56
2021/03/25 01:48:16;;;;;;;15.93;8.10;;;;;;;;;;4324563;33;20207;-56
2021/03/25 01:50:43;;;;;;;11.57;7.40;;;;;;;;;;4329225;33;20581;-55
2021/03/25 01:53:43;;;;;;;12.67;6.83;;;;;;;;;;4333965;33;20294;-55
2021/03/25 01:56:27;;;;;;;14.70;6.60;;;;;;;;;;4330671;33;20273;-56
2021/03/25 01:59:10;;;;;;;11.37;6.77;;;;;;;;;;4317813;33;20633;-56
2021/03/25 02:01:52;;;;;;;17.40;9.33;;;;;;;;;;4332258;33;20234;-56
2021/03/25 02:04:41;;;;;;;31.90;16.90;;;;;;;;;;4327215;33;20395;-56
2021/03/25 02:07:30;;;;;;;35.07;19.40;;;;;;;;;;4338383;33;20207;-56
2021/03/25 02:10:00;;;;;;;30.37;16.97;;;;;;;;;;4317524;33;20223;-55
2021/03/25 02:12:35;;;;;;;31.17;17.43;;;;;;;;;;4320991;33;20255;-55
2021/03/25 02:15:20;;;;;;;30.57;15.63;;;;;;;;;;4316934;33;20322;-55
2021/03/25 02:17:53;;;;;;;29.60;16.57;;;;;;;;;;4336479;33;20199;-55
2021/03/25 02:20:44;;;;;;;28.10;16.80;;;;;;;;;;4317518;33;20238;-56
2021/03/25 02:23:28;;;;;;;28.27;15.63;;;;;;;;;;4333336;33;21157;-55
2021/03/25 02:26:17;;;;;;;28.43;16.60;;;;;;;;;;4333923;33;20223;-55
2021/03/25 02:29:20;;;;;;;29.17;18.07;;;;;;;;;;4317064;33;20715;-56
2021/03/25 02:31:54;;;;;;;34.63;16.50;;;;;;;;;;4333955;33;20226;-57
2021/03/25 02:34:28;;;;;;;27.93;15.90;;;;;;;;;;4326718;33;20203;-56
2021/03/25 02:37:00;;;;;;;41.60;20.13;;;;;;;;;;4337915;33;20589;-57
2021/03/25 02:39:40;;;;;;;36.60;18.47;;;;;;;;;;4329882;33;20565;-54
2021/03/25 02:42:10;;;;;;;30.37;17.27;;;;;;;;;;4337697;33;20664;-56
2021/03/25 02:45:06;;;;;;;33.90;15.40;;;;;;;;;;4317375;33;20235;-55
2021/03/25 02:47:37;;;;;;;35.53;19.43;;;;;;;;;;4314477;33;20228;-56
2021/03/25 02:50:20;;;;;;;52.23;25.87;;;;;;;;;;4324203;33;20719;-56
2021/03/25 02:52:52;;;;;;;45.27;24.77;;;;;;;;;;4322075;33;20218;-55
2021/03/25 02:55:18;;;;;;;42.57;24.03;;;;;;;;;;4331360;33;20404;-56
2021/03/25 02:58:11;;;;;;;30.10;17.43;;;;;;;;;;4333365;33;20238;-56
2021/03/25 03:00:40;;;;;;;25.20;14.00;;;;;;;;;;4330815;33;20211;-56
2021/03/25 03:03:13;;;;;;;13.23;8.83;;;;;;;;;;4332535;33;20597;-55
2021/03/25 03:05:41;;;;;;;12.13;8.47;;;;;;;;;;4318882;33;20321;-55
2021/03/25 03:08:19;;;;;;;13.40;7.00;;;;;;;;;;4332981;33;20243;-56
2021/03/25 03:10:52;;;;;;;12.83;6.83;;;;;;;;;;4341201;33;20210;-55
2021/03/25 03:13:19;;;;;;;12.53;6.57;;;;;;;;;;4323922;33;20222;-54
2021/03/25 03:16:15;;;;;;;10.30;6.47;;;;;;;;;;4330731;33;20290;-55
2021/03/25 03:19:00;;;;;;;9.40;6.17;;;;;;;;;;4328011;33;20306;-55
2021/03/25 03:21:46;;;;;;;12.23;7.50;;;;;;;;;;4334818;33;20322;-55
2021/03/25 03:24:12;;;;;;;11.57;7.07;;;;;;;;;;4328826;33;20305;-54
2021/03/25 03:26:45;;;;;;;12.53;7.33;;;;;;;;;;4335617;33;20278;-55
2021/03/25 03:29:11;;;;;;;12.33;7.87;;;;;;;;;;4329608;33;20298;-55
2021/03/25 03:31:46;;;;;;;11.60;7.00;;;;;;;;;;4335509;33;20211;-55
2021/03/25 03:34:37;;;;;;;11.27;7.20;;;;;;;;;;4328701;33;20317;-55
2021/03/25 03:37:08;;;;;;;16.30;10.53;;;;;;;;;;4336565;33;20544;-54
2021/03/25 03:39:34;;;;;;;20.37;11.43;;;;;;;;;;4329014;33;20212;-54
2021/03/25 03:42:17;;;;;;;27.63;15.27;;;;;;;;;;4323512;33;20288;-54
2021/03/25 03:44:45;;;;;;;29.47;12.83;;;;;;;;;;4328282;33;20309;-56
2021/03/25 03:47:14;;;;;;;26.03;11.50;;;;;;;;;;4337059;33;20208;-55
2021/03/25 03:49:48;;;;;;;16.70;10.77;;;;;;;;;;4328714;33;20637;-55
2021/03/25 03:52:17;;;;;;;16.33;10.07;;;;;;;;;;4318944;33;20257;-55
2021/03/25 03:54:44;;;;;;;20.07;11.43;;;;;;;;;;4327920;33;20747;-55
2021/03/25 03:57:45;;;;;;;29.83;21.23;;;;;;;;;;4319481;33;20277;-54
2021/03/25 04:00:24;;;;;;;42.43;22.77;;;;;;;;;;4305401;33;20253;-55
2021/03/25 04:03:19;;;;;;;46.90;23.93;;;;;;;;;;4332399;33;20238;-54
2021/03/25 04:05:52;;;;;;;30.87;16.77;;;;;;;;;;4329762;33;20227;-55
2021/03/25 04:08:23;;;;;;;27.53;15.43;;;;;;;;;;4325789;33;20296;-54
2021/03/25 04:11:04;;;;;;;23.37;12.33;;;;;;;;;;4332084;33;20242;-55
2021/03/25 04:13:37;;;;;;;29.87;14.40;;;;;;;;;;4317762;33;20262;-56
2021/03/25 04:16:03;;;;;;;34.67;14.80;;;;;;;;;;4331175;33;20227;-55
2021/03/25 04:18:48;;;;;;;24.97;14.03;;;;;;;;;;4322201;33;20301;-56
2021/03/25 04:21:22;;;;;;;24.60;15.03;;;;;;;;;;4331093;33;20276;-56
2021/03/25 04:23:50;;;;;;;41.13;20.50;;;;;;;;;;4315309;33;20397;-55
2021/03/25 04:26:33;;;;;;;35.87;19.53;;;;;;;;;;4324862;33;20231;-55
2021/03/25 04:29:04;;;;;;;52.03;23.73;;;;;;;;;;4337070;33;20416;-55
2021/03/25 04:31:31;;;;;;;45.47;24.73;;;;;;;;;;4319194;33;20228;-55
2021/03/25 04:33:57;;;;;;;52.60;25.57;;;;;;;;;;4313591;33;20301;-54
2021/03/25 04:36:26;;;;;;;48.17;26.63;;;;;;;;;;4314530;33;20282;-55
2021/03/25 04:38:54;;;;;;;38.93;21.97;;;;;;;;;;4315134;33;20657;-55
2021/03/25 04:41:20;;;;;;;39.53;24.67;;;;;;;;;;4327020;33;20208;-55
2021/03/25 04:43:47;;;;;;;64.07;36.97;;;;;;;;;;4315436;33;20277;-55
2021/03/25 04:46:21;;;;;;;28.37;18.43;;;;;;;;;;4325762;33;20200;-54
2021/03/25 04:48:49;;;;;;;35.17;19.10;;;;;;;;;;4330155;33;20646;-55
2021/03/25 04:51:20;;;;;;;24.53;15.57;;;;;;;;;;4332369;33;20214;-55
2021/03/25 04:53:47;;;;;;;30.00;17.77;;;;;;;;;;4331090;33;20354;-56
2021/03/25 04:56:19;;;;;;;29.77;17.23;;;;;;;;;;4318207;33;20274;-54
2021/03/25 04:58:51;;;;;;;33.70;17.47;;;;;;;;;;4338615;33;20238;-55
2021/03/25 05:01:25;;;;;;;34.03;18.43;;;;;;;;;;4337108;33;20220;-55
2021/03/25 05:03:56;;;;;;;30.30;18.43;;;;;;;;;;4339797;33;20222;-55
2021/03/25 05:06:49;;;;;;;29.87;16.60;;;;;;;;;;4334758;33;20362;-55
2021/03/25 05:09:17;;;;;;;34.73;17.80;;;;;;;;;;4330711;33;20538;-55
2021/03/25 05:11:44;;;;;;;29.53;18.80;;;;;;;;;;4333551;33;20215;-55
2021/03/25 05:14:17;;;;;;;38.50;19.23;;;;;;;;;;4327423;33;20616;-56
2021/03/25 05:17:04;;;;;;;40.10;22.53;;;;;;;;;;4333355;33;20222;-56
2021/03/25 05:19:51;;;;;;;39.67;20.03;;;;;;;;;;4328980;33;20246;-57
2021/03/25 05:22:48;;;;;;;35.97;19.43;;;;;;;;;;4334956;33;20195;-56
2021/03/25 05:25:16;;;;;;;43.77;22.47;;;;;;;;;;4328306;33;20257;-57
2021/03/25 05:27:47;;;;;;;44.23;22.83;;;;;;;;;;4317015;33;20716;-56
2021/03/25 05:30:18;;;;;;;63.47;36.23;;;;;;;;;;4315657;33;20289;-58
2021/03/25 05:32:46;;;;;;;69.73;41.53;;;;;;;;;;4335917;33;20511;-58
2021/03/25 05:35:19;;;;;;;84.83;48.30;;;;;;;;;;4331973;33;20203;-58
2021/03/25 05:37:46;;;;;;;139.17;73.70;;;;;;;;;;4314199;33;20400;-60
2021/03/25 05:40:22;;;;;;;144.07;79.77;;;;;;;;;;4331944;33;20372;-58
2021/03/25 05:43:12;;;;;;;144.73;80.50;;;;;;;;;;4334256;33;20319;-58
2021/03/25 05:45:50;;;;;;;103.63;55.97;;;;;;;;;;4332446;33;20301;-57
2021/03/25 05:48:45;;;;;;;94.57;53.73;;;;;;;;;;4317455;33;20566;-57
2021/03/25 05:51:36;;;;;;;86.20;51.23;;;;;;;;;;4326959;33;20630;-57
2021/03/25 05:54:31;;;;;;;94.37;52.17;;;;;;;;;;4331995;33;20309;-56
2021/03/25 05:57:16;;;;;;;79.30;47.83;;;;;;;;;;4334542;33;20211;-55
2021/03/25 05:59:56;;;;;;;103.33;55.57;;;;;;;;;;4315217;33;20227;-57
2021/03/25 06:02:43;;;;;;;108.30;61.20;;;;;;;;;;4338551;33;20610;-56
2021/03/25 06:05:13;;;;;;;115.47;68.47;;;;;;;;;;4331210;33;20243;-57
2021/03/25 06:07:53;;;;;;;103.00;59.87;;;;;;;;;;4336824;33;20408;-57
2021/03/25 06:10:38;;;;;;;103.23;60.93;;;;;;;;;;4330458;33;20234;-56
2021/03/25 06:13:09;;;;;;;128.27;65.40;;;;;;;;;;4318304;33;20195;-54
2021/03/25 06:15:44;;;;;;;88.53;49.90;;;;;;;;;;4332774;33;20219;-55
2021/03/25 06:18:24;;;;;;;87.97;50.63;;;;;;;;;;4333387;33;20549;-54
2021/03/25 06:21:02;;;;;;;73.23;42.00;;;;;;;;;;4332220;33;20297;-55
2021/03/25 06:23:45;;;;;;;66.70;39.47;;;;;;;;;;4334547;33;20687;-55
2021/03/25 06:26:25;;;;;;;76.43;42.00;;;;;;;;;;4334102;33;20199;-54
2021/03/25 06:28:54;;;;;;;82.93;45.17;;;;;;;;;;4338066;33;20269;-55
2021/03/25 06:31:29;;;;;;;72.13;40.60;;;;;;;;;;4335508;33;20277;-54
2021/03/25 06:34:04;;;;;;;59.73;35.83;;;;;;;;;;4332319;33;20357;-53
2021/03/25 06:36:53;;;;;;;65.40;34.83;;;;;;;;;;4322288;33;20234;-54
2021/03/25 06:39:36;;;;;;;50.67;30.50;;;;;;;;;;4333276;33;20266;-54
2021/03/25 06:42:32;;;;;;;54.60;30.40;;;;;;;;;;4335192;33;20207;-55
2021/03/25 06:45:04;;;;;;;71.13;34.43;;;;;;;;;;4317280;33;20318;-54
2021/03/25 06:47:41;;;;;;;66.93;37.40;;;;;;;;;;4317167;33;20270;-55
2021/03/25 06:50:08;;;;;;;77.87;38.37;;;;;;;;;;4328413;33;20298;-55
2021/03/25 06:52:37;;;;;;;74.07;36.73;;;;;;;;;;4319185;33;20691;-55
2021/03/25 06:55:23;;;;;;;63.87;35.10;;;;;;;;;;4328069;33;20671;-57
2021/03/25 06:57:55;;;;;;;70.50;35.93;;;;;;;;;;4330431;33;20641;-56
2021/03/25 07:00:23;;;;;;;69.17;39.97;;;;;;;;;;4330289;33;20678;-56
2021/03/25 07:02:49;;;;;;;63.63;36.07;;;;;;;;;;4331532;33;20234;-56
2021/03/25 07:05:25;;;;;;;69.60;36.97;;;;;;;;;;4330102;33;20335;-55
2021/03/25 07:08:01;;;;;;;57.13;34.50;;;;;;;;;;4333035;33;20235;-55
2021/03/25 07:10:27;;;;;;;59.97;35.17;;;;;;;;;;4327189;33;20384;-55
2021/03/25 07:13:02;;;;;;;54.80;33.37;;;;;;;;;;4324746;33;20298;-56
2021/03/25 07:15:28;;;;;;;50.40;29.87;;;;;;;;;;4333532;33;20379;-54
2021/03/25 07:17:54;;;;;;;57.83;36.67;;;;;;;;;;4334393;33;20739;-55
2021/03/25 07:20:35;;;;;;;63.37;36.50;;;;;;;;;;4330894;33;20251;-55
2021/03/25 07:23:15;;;;;;;56.13;34.40;;;;;;;;;;4328773;33;20225;-57
2021/03/25 07:25:50;;;;;;;43.37;21.07;;;;;;;;;;4330556;33;20246;-55
2021/03/25 07:28:23;;;;;;;32.70;19.73;;;;;;;;;;4320680;33;20223;-56
2021/03/25 07:31:03;;;;;;;38.63;20.13;;;;;;;;;;4337261;33;20328;-56
2021/03/25 07:33:38;;;;;;;31.07;17.73;;;;;;;;;;4324444;33;20616;-56
2021/03/25 07:36:10;;;;;;;34.27;18.93;;;;;;;;;;4327887;33;20617;-56
2021/03/25 07:38:40;;;;;;;28.70;16.80;;;;;;;;;;4335054;33;20227;-55
2021/03/25 07:41:27;;;;;;;23.90;16.70;;;;;;;;;;4328741;33;20210;-57
2021/03/25 07:44:04;;;;;;;29.83;17.07;;;;;;;;;;4312213;33;20584;-56
2021/03/25 07:46:40;;;;;;;31.83;18.37;;;;;;;;;;4315447;33;20239;-56
2021/03/25 07:49:09;;;;;;;28.17;17.90;;;;;;;;;;4331790;33;20241;-54
2021/03/25 07:51:43;;;;;;;38.80;24.13;;;;;;;;;;4314097;33;20441;-55
2021/03/25 07:54:13;;;;;;;26.10;17.37;;;;;;;;;;4326181;33;20281;-55
2021/03/25 07:56:58;;;;;;;31.97;21.13;;;;;;;;;;4332914;33;20443;-55
2021/03/25 07:59:53;;;;;;;38.87;19.33;;;;;;;;;;4321383;33;20273;-55
2021/03/25 08:02:28;;;;;;;34.47;18.90;;;;;;;;;;4330323;33;20337;-54
2021/03/25 08:04:55;;;;;;;18.37;11.57;;;;;;;;;;4325713;33;20711;-54
2021/03/25 08:07:21;;;;;;;21.40;12.63;;;;;;;;;;4336541;33;20523;-55
2021/03/25 08:09:53;;;;;;;14.50;10.17;;;;;;;;;;4315358;33;20251;-55
2021/03/25 08:12:21;;;;;;;14.93;10.43;;;;;;;;;;4314637;33;20221;-55
2021/03/25 08:14:47;;;;;;;17.23;9.57;;;;;;;;;;4326684;33;20285;-56
2021/03/25 08:17:30;;;;;;;20.53;12.53;;;;;;;;;;4325114;33;20380;-56
2021/03/25 08:20:19;;;;;;;22.30;13.60;;;;;;;;;;4327435;33;20341;-55
2021/03/25 08:23:28;;;;;;;16.30;8.90;;;;;;;;;;4331984;33;20250;-54
2021/03/25 08:26:38;;;;;;;13.43;7.97;;;;;;;;;;4319731;33;20274;-56
2021/03/25 08:30:01;;;;;;;15.70;9.80;;;;;;;;;;4338591;33;20216;-56
2021/03/25 08:32:41;;;;;;;18.10;10.57;;;;;;;;;;4308400;33;20803;-55
2021/03/25 08:35:15;;;;;;;16.40;11.00;;;;;;;;;;4307200;33;20312;-56
2021/03/25 08:37:49;;;;;;;10.30;7.07;;;;;;;;;;4318133;33;20219;-55
2021/03/25 08:40:19;;;;;;;9.93;5.30;;;;;;;;;;4323989;33;20218;-54
2021/03/25 08:42:51;;;;;;;19.60;7.43;;;;;;;;;;4325613;33;20436;-55
2021/03/25 08:45:41;;;;;;;8.60;6.30;;;;;;;;;;4321903;33;20314;-55
2021/03/25 08:48:15;;;;;;;9.23;5.87;;;;;;;;;;4324712;33;20239;-55
2021/03/25 08:50:56;;;;;;;9.20;5.50;;;;;;;;;;4325877;33;20210;-55
2021/03/25 08:53:21;;;;;;;13.27;7.77;;;;;;;;;;4324770;33;20246;-55
2021/03/25 08:55:51;;;;;;;10.40;5.90;;;;;;;;;;4325558;33;20392;-54
2021/03/25 08:58:23;;;;;;;17.57;9.40;;;;;;;;;;4326225;33;20317;-55
2021/03/25 09:00:52;;;;;;;8.57;5.70;;;;;;;;;;4312226;33;20433;-55
2021/03/25 09:03:26;;;;;;;13.00;8.47;;;;;;;;;;4330623;33;20203;-54
2021/03/25 09:06:00;;;;;;;10.60;7.33;;;;;;;;;;4322690;33;20246;-55
2021/03/25 09:08:28;;;;;;;9.40;6.47;;;;;;;;;;4302535;33;20419;-55
2021/03/25 09:11:03;;;;;;;9.37;6.50;;;;;;;;;;4319191;33;20244;-55
2021/03/25 09:13:36;;;;;;;16.10;6.80;;;;;;;;;;4311018;33;20207;-55
2021/03/25 09:16:23;;;;;;;16.00;7.23;;;;;;;;;;4305364;33;20234;-55
2021/03/25 09:18:50;;;;;;;28.13;11.90;;;;;;;;;;4324718;33;20343;-55
2021/03/25 09:21:29;;;;;;;21.17;11.07;;;;;;;;;;4319425;33;20587;-54
2021/03/25 09:24:08;;;;;;;8.57;6.03;;;;;;;;;;4316356;33;20242;-54
2021/03/25 09:26:53;;;;;;;13.00;6.87;;;;;;;;;;4314893;33;20246;-56
2021/03/25 09:29:22;;;;;;;9.30;5.93;;;;;;;;;;4310895;33;20254;-55
2021/03/25 09:31:54;;;;;;;11.00;5.43;;;;;;;;;;4316861;33;20736;-54
2021/03/25 09:34:22;;;;;;;7.77;5.90;;;;;;;;;;4311127;33;20312;-54
2021/03/25 09:37:14;;;;;;;10.27;7.27;;;;;;;;;;4309528;33;20227;-54
2021/03/25 09:39:40;;;;;;;9.70;5.50;;;;;;;;;;4299623;33;20269;-54
2021/03/25 09:42:15;;;;;;;7.07;5.60;;;;;;;;;;4312276;33;20321;-56
2021/03/25 09:44:42;;;;;;;10.13;7.00;;;;;;;;;;4323614;33;20256;-55
2021/03/25 09:47:18;;;;;;;6.03;5.00;;;;;;;;;;4322697;33;20223;-55
2021/03/25 09:49:46;;;;;;;8.03;6.20;;;;;;;;;;4312489;33;20257;-54
2021/03/25 09:52:23;;;;;;;19.17;10.73;;;;;;;;;;4319658;33;20290;-53
2021/03/25 09:55:11;;;;;;;17.63;11.73;;;;;;;;;;4316605;33;20320;-54
2021/03/25 09:57:42;;;;;;;14.70;9.20;;;;;;;;;;4318748;33;20207;-55
2021/03/25 10:00:16;;;;;;;9.83;7.47;;;;;;;;;;4322765;33;20403;-54
2021/03/25 10:02:43;;;;;;;17.13;9.67;;;;;;;;;;4315153;33;20285;-55
2021/03/25 10:05:33;;;;;;;10.60;7.90;;;;;;;;;;4314395;33;20268;-55
2021/03/25 10:08:20;;;;;;;130.70;94.93;;;;;;;;;;4305768;33;20290;-54
2021/03/25 10:10:50;;;;;;;13.67;8.33;;;;;;;;;;4316404;33;20223;-55
2021/03/25 10:13:34;;;;;;;18.33;10.13;;;;;;;;;;4301578;33;20298;-54
2021/03/25 10:16:02;;;;;;;9.37;7.47;;;;;;;;;;4306535;33;20240;-54
2021/03/25 10:18:28;;;;;;;13.10;10.27;;;;;;;;;;4316864;33;20581;-54
2021/03/25 10:20:53;;;;;;;16.20;11.30;;;;;;;;;;4312389;33;20227;-54
2021/03/25 10:23:21;;;;;;;11.87;8.57;;;;;;;;;;4321796;33;20334;-55
2021/03/25 10:25:55;;;;;;;15.07;9.80;;;;;;;;;;4310589;33;20232;-55
2021/03/25 10:28:25;;;;;;;9.87;5.47;;;;;;;;;;4314404;33;20405;-54
2021/03/25 10:30:57;;;;;;;9.90;7.97;;;;;;;;;;4318628;33;20278;-54
2021/03/25 10:33:23;;;;;;;15.83;8.67;;;;;;;;;;4318494;33;20223;-54
2021/03/25 10:36:05;;;;;;;9.00;6.07;;;;;;;;;;4323842;33;20249;-53
2021/03/25 10:38:39;;;;;;;25.80;17.03;;;;;;;;;;4305518;33;20334;-53
2021/03/25 10:41:05;;;;;;;27.53;16.97;;;;;;;;;;4319284;33;20369;-55
2021/03/25 10:43:35;;;;;;;51.97;28.40;;;;;;;;;;4318515;33;20335;-54
2021/03/25 10:46:04;;;;;;;28.17;17.97;;;;;;;;;;4311985;33;20606;-56
2021/03/25 10:48:43;;;;;;;24.50;13.67;;;;;;;;;;4317548;33;20227;-53
2021/03/25 10:51:12;;;;;;;9.27;6.70;;;;;;;;;;4284828;33;20249;-55
2021/03/25 10:53:39;;;;;;;25.67;18.67;;;;;;;;;;4311518;33;20236;-55
2021/03/25 10:56:32;;;;;;;16.50;11.00;;;;;;;;;;4326774;33;20343;-54
2021/03/25 10:59:09;;;;;;;94.63;48.20;;;;;;;;;;4312296;33;20291;-54
2021/03/25 11:01:37;;;;;;;65.03;37.63;;;;;;;;;;4319011;33;20211;-54
2021/03/25 11:04:21;;;;;;;36.60;21.33;;;;;;;;;;4313862;33;20422;-54
2021/03/25 11:06:48;;;;;;;14.93;8.93;;;;;;;;;;4309247;33;20673;-55
2021/03/25 11:09:27;;;;;;;14.63;6.27;;;;;;;;;;4298371;33;20232;-54
2021/03/25 11:12:18;;;;;;;9.40;6.13;;;;;;;;;;4317892;33;20215;-54
2021/03/25 11:14:50;;;;;;;26.83;16.03;;;;;;;;;;4312015;33;20235;-54
2021/03/25 11:17:22;;;;;;;10.03;7.50;;;;;;;;;;4318263;33;20549;-55
2021/03/25 11:19:59;;;;;;;34.30;20.40;;;;;;;;;;4311182;33;20286;-54
2021/03/25 11:22:26;;;;;;;16.87;7.77;;;;;;;;;;4314448;33;20269;-54
2021/03/25 11:24:51;;;;;;;21.40;10.93;;;;;;;;;;4313502;33;20278;-55
2021/03/25 11:27:22;;;;;;;31.37;16.20;;;;;;;;;;4314721;33;20283;-56
2021/03/25 11:30:00;;;;;;;17.00;9.33;;;;;;;;;;4308772;33;20246;-54
2021/03/25 11:32:33;;;;;;;39.47;18.33;;;;;;;;;;4310407;33;20289;-55
2021/03/25 11:35:18;;;;;;;20.60;9.60;;;;;;;;;;4312797;33;20243;-55
2021/03/25 11:37:44;;;;;;;40.50;19.77;;;;;;;;;;4304423;33;20294;-56
2021/03/25 11:40:13;;;;;;;33.03;14.73;;;;;;;;;;4314030;33;20263;-56
2021/03/25 11:42:41;;;;;;;34.30;16.63;;;;;;;;;;4312076;33;20398;-56
2021/03/25 11:45:27;;;;;;;26.70;14.67;;;;;;;;;;4300274;33;20699;-55
2021/03/25 11:47:53;;;;;;;15.50;8.63;;;;;;;;;;4312524;33;20759;-55
2021/03/25 11:50:18;;;;;;;19.00;9.93;;;;;;;;;;4314808;33;20250;-56
2021/03/25 11:52:46;;;;;;;13.53;8.53;;;;;;;;;;4314036;33;20297;-56
2021/03/25 11:55:44;;;;;;;13.50;7.83;;;;;;;;;;4302580;33;20298;-54
2021/03/25 11:58:17;;;;;;;13.43;8.60;;;;;;;;;;4316796;33;20408;-55
2021/03/25 12:01:04;;;;;;;21.30;11.70;;;;;;;;;;4322295;33;20223;-54
2021/03/25 12:03:44;;;;;;;21.20;10.13;;;;;;;;;;4308856;33;20287;-55
2021/03/25 12:06:36;;;;;;;16.63;8.83;;;;;;;;;;4317550;33;20243;-55
2021/03/25 12:09:08;;;;;;;10.30;5.60;;;;;;;;;;4323353;33;20421;-56
2021/03/25 12:11:36;;;;;;;8.93;5.67;;;;;;;;;;4331092;33;20281;-55
2021/03/25 12:14:01;;;;;;;19.97;11.00;;;;;;;;;;4330022;33;20652;-55
2021/03/25 12:16:27;;;;;;;25.43;11.73;;;;;;;;;;4318044;33;20281;-55
2021/03/25 12:18:56;;;;;;;20.33;10.00;;;;;;;;;;4328621;33;20633;-54
2021/03/25 12:21:23;;;;;;;37.43;15.40;;;;;;;;;;4314802;33;20250;-55
2021/03/25 12:23:52;;;;;;;29.63;13.93;;;;;;;;;;4329339;33;20782;-55
2021/03/25 12:26:18;;;;;;;7.97;5.03;;;;;;;;;;4332697;33;20270;-57
2021/03/25 12:28:43;;;;;;;17.93;8.17;;;;;;;;;;4328671;33;20726;-55
2021/03/25 12:31:14;;;;;;;51.93;20.63;;;;;;;;;;4329860;33;20269;-55
2021/03/25 12:33:40;;;;;;;25.03;13.33;;;;;;;;;;4334407;33;20596;-55
2021/03/25 12:36:08;;;;;;;14.90;8.47;;;;;;;;;;4326907;33;20508;-55
2021/03/25 12:38:36;;;;;;;39.53;17.27;;;;;;;;;;4339549;33;20215;-55
2021/03/25 12:41:01;;;;;;;41.07;17.60;;;;;;;;;;4329198;33;20378;-55
2021/03/25 12:43:29;;;;;;;48.30;19.07;;;;;;;;;;4325912;33;20230;-55
2021/03/25 12:45:59;;;;;;;65.53;28.20;;;;;;;;;;4328794;33;20256;-56
2021/03/25 12:48:29;;;;;;;23.43;12.37;;;;;;;;;;4319272;33;20398;-56
2021/03/25 12:50:56;;;;;;;55.57;23.10;;;;;;;;;;4331881;33;20210;-55
2021/03/25 12:53:23;;;;;;;34.80;14.97;;;;;;;;;;4331519;33;20390;-56
2021/03/25 12:55:49;;;;;;;36.27;19.10;;;;;;;;;;4314959;33;20692;-55
2021/03/25 12:58:36;;;;;;;14.00;10.17;;;;;;;;;;4324774;33;20336;-55
2021/03/25 13:01:24;;;;;;;9.00;6.90;;;;;;;;;;4327559;33;20340;-57
2021/03/25 13:03:50;;;;;;;24.83;14.77;;;;;;;;;;4311630;33;20254;-57
2021/03/25 13:06:17;;;;;;;39.53;21.30;;;;;;;;;;4319401;33;20298;-57
2021/03/25 13:08:43;;;;;;;53.00;26.87;;;;;;;;;;4330001;33;20596;-57
2021/03/25 13:11:17;;;;;;;24.80;15.13;;;;;;;;;;4329775;33;20723;-56
2021/03/25 13:13:43;;;;;;;75.20;33.93;;;;;;;;;;4329980;33;20222;-57
2021/03/25 13:16:09;;;;;;;33.93;16.43;;;;;;;;;;4333526;33;20769;-55
2021/03/25 13:18:35;;;;;;;21.87;11.73;;;;;;;;;;4331060;33;20223;-55
2021/03/25 13:21:02;;;;;;;23.27;12.07;;;;;;;;;;4328598;33;20779;-55
2021/03/25 13:23:27;;;;;;;8.83;5.87;;;;;;;;;;4327969;33;20293;-56
2021/03/25 13:25:53;;;;;;;40.27;18.80;;;;;;;;;;4325292;33;20223;-55
2021/03/25 13:28:20;;;;;;;9.60;7.53;;;;;;;;;;4317454;33;20310;-54
2021/03/25 13:30:46;;;;;;;21.60;12.57;;;;;;;;;;4313792;33;20257;-53
2021/03/25 13:33:12;;;;;;;37.57;19.63;;;;;;;;;;4318760;33;20270;-53
2021/03/25 13:35:40;;;;;;;25.93;15.27;;;;;;;;;;4325276;33;20372;-54
2021/03/25 13:38:06;;;;;;;21.40;13.47;;;;;;;;;;4331455;33;20630;-53
2021/03/25 13:40:35;;;;;;;36.60;18.27;;;;;;;;;;4331905;33;20202;-54
2021/03/25 13:43:01;;;;;;;26.10;13.40;;;;;;;;;;4327349;33;20253;-55
2021/03/25 13:45:28;;;;;;;9.70;7.53;;;;;;;;;;4330285;33;20646;-55
2021/03/25 13:47:54;;;;;;;14.33;8.23;;;;;;;;;;4312631;33;20218;-55
2021/03/25 13:50:23;;;;;;;25.33;14.47;;;;;;;;;;4333558;33;20211;-54
2021/03/25 13:52:50;;;;;;;17.33;10.17;;;;;;;;;;4326084;33;20444;-54
2021/03/25 13:55:32;;;;;;;101.87;55.20;;;;;;;;;;4326818;33;20282;-55
2021/03/25 13:57:58;;;;;;;24.27;15.83;;;;;;;;;;4318196;33;20286;-55
2021/03/25 14:00:25;;;;;;;16.80;12.73;;;;;;;;;;4329344;33;20412;-54
2021/03/25 14:02:53;;;;;;;18.73;10.47;;;;;;;;;;4334842;33;20222;-55
2021/03/25 14:05:20;;;;;;;21.00;11.77;;;;;;;;;;4322999;33;20364;-54
2021/03/25 14:07:46;;;;;;;11.07;6.00;;;;;;;;;;4330994;33;20735;-55
2021/03/25 14:10:12;;;;;;;11.63;8.07;;;;;;;;;;4329095;33;20247;-54
2021/03/25 14:12:38;;;;;;;7.97;6.17;;;;;;;;;;4326800;33;20767;-54
2021/03/25 14:15:07;;;;;;;8.87;6.33;;;;;;;;;;4314224;33;20396;-55
2021/03/25 14:17:36;;;;;;;8.80;6.77;;;;;;;;;;4315760;33;20243;-54
2021/03/25 14:20:07;;;;;;;6.40;5.30;;;;;;;;;;4337562;33;20351;-55
2021/03/25 14:22:32;;;;;;;8.57;5.97;;;;;;;;;;4326503;33;20293;-54
2021/03/25 14:24:58;;;;;;;15.70;8.70;;;;;;;;;;4314439;33;20310;-54
2021/03/25 14:27:23;;;;;;;15.77;6.80;;;;;;;;;;4335041;33;20290;-54
2021/03/25 14:29:49;;;;;;;8.90;6.70;;;;;;;;;;4339818;33;20639;-54
2021/03/25 14:32:14;;;;;;;11.93;8.13;;;;;;;;;;4331820;33;20665;-55
2021/03/25 14:34:40;;;;;;;10.73;7.73;;;;;;;;;;4324399;33;20261;-54
2021/03/25 14:37:07;;;;;;;18.70;8.93;;;;;;;;;;4331024;33;20239;-54
2021/03/25 14:39:32;;;;;;;13.70;9.33;;;;;;;;;;4330685;33;20227;-55
2021/03/25 14:41:58;;;;;;;20.27;13.03;;;;;;;;;;4337071;33;20297;-55
2021/03/25 14:44:23;;;;;;;13.73;9.80;;;;;;;;;;4313337;33;20251;-55
2021/03/25 14:46:49;;;;;;;13.93;7.73;;;;;;;;;;4324317;33;20223;-54
2021/03/25 14:49:14;;;;;;;14.47;10.33;;;;;;;;;;4319821;33;20376;-55
2021/03/25 14:51:41;;;;;;;15.20;11.00;;;;;;;;;;4320087;33;20525;-54
2021/03/25 14:54:09;;;;;;;15.63;10.70;;;;;;;;;;4325267;33;20656;-55
2021/03/25 14:56:35;;;;;;;18.53;11.80;;;;;;;;;;4327715;33;20203;-55
2021/03/25 14:59:01;;;;;;;18.27;12.37;;;;;;;;;;4326121;33;20407;-55
2021/03/25 15:01:26;;;;;;;25.23;17.23;;;;;;;;;;4330317;33;20270;-55